createdAt,value
2022-11-12T00:02:28.889Z,101718.59
2022-11-12T00:08:39.630Z,101725.25
2022-11-12T00:14:50.587Z,101728.88
2022-11-12T00:21:01.606Z,101729.78
2022-11-12T00:27:13.888Z,101733.44
2022-11-12T00:33:24.568Z,101737.03
2022-11-12T00:39:36.658Z,101740.63
2022-11-12T00:45:48.967Z,101748.13
2022-11-12T00:51:59.907Z,101747.34
2022-11-12T00:58:10.788Z,101737.66
2022-11-12T01:04:22.874Z,101739.59
2022-11-12T01:10:36.627Z,101742.47
2022-11-12T01:16:48.007Z,101738.19
2022-11-12T01:22:59.087Z,101740.31
2022-11-12T01:29:10.468Z,101742.94
2022-11-12T01:35:22.887Z,101736.56
2022-11-12T01:41:37.227Z,101733.69
2022-11-12T01:47:52.126Z,101732.50
2022-11-12T01:54:06.309Z,101739.28
2022-11-12T02:00:18.328Z,101731.97
2022-11-12T02:06:31.682Z,101729.22
2022-11-12T02:13:02.847Z,101724.75
2022-11-12T02:19:16.755Z,101726.56
2022-11-12T02:25:28.735Z,101719.59
2022-11-12T02:31:41.057Z,101723.34
2022-11-12T02:37:52.175Z,101724.41
2022-11-12T02:44:02.595Z,101724.34
2022-11-12T02:50:14.425Z,101723.25
2022-11-12T02:56:25.099Z,101710.50
2022-11-12T03:02:43.025Z,101717.66
2022-11-12T03:08:53.945Z,101715.72
2022-11-12T03:15:06.624Z,101714.97
2022-11-12T03:21:17.136Z,101713.31
2022-11-12T03:27:28.155Z,101706.25
2022-11-12T03:33:39.995Z,101715.00
2022-11-12T03:39:52.105Z,101714.09
2022-11-12T03:46:04.197Z,101723.81
2022-11-12T03:52:15.327Z,101728.31
2022-11-12T03:58:26.436Z,101718.50
2022-11-12T04:04:55.916Z,101714.19
2022-11-12T04:11:14.173Z,101717.00
2022-11-12T04:17:44.016Z,101718.09
2022-11-12T04:23:55.206Z,101722.59
2022-11-12T04:30:19.677Z,101729.88
2022-11-12T04:36:30.317Z,101718.47
2022-11-12T04:43:10.646Z,101712.34
2022-11-12T04:49:21.906Z,101709.09
2022-11-12T04:55:33.648Z,101720.13
2022-11-12T05:01:44.727Z,101724.00
2022-11-12T05:07:55.539Z,101737.63
2022-11-12T05:14:09.418Z,101742.34
2022-11-12T05:20:20.328Z,101743.50
2022-11-12T05:26:31.568Z,101739.13
2022-11-12T05:32:42.075Z,101749.72
2022-11-12T05:38:53.091Z,101753.31
2022-11-12T05:45:05.177Z,101756.00
2022-11-12T05:51:16.846Z,101758.03
2022-11-12T05:57:28.307Z,101762.41
2022-11-12T06:03:39.373Z,101763.41
2022-11-12T06:09:50.528Z,101772.16
2022-11-12T06:16:01.657Z,101782.72
2022-11-12T06:22:12.597Z,101784.44
2022-11-12T06:28:24.230Z,101790.53
2022-11-12T06:34:35.694Z,101782.91
2022-11-12T06:40:47.568Z,101778.56
2022-11-12T06:46:58.828Z,101777.31
2022-11-12T06:53:09.708Z,101789.25
2022-11-12T06:59:20.619Z,101783.56
2022-11-12T07:05:31.608Z,101792.38
2022-11-12T07:11:42.678Z,101805.44
2022-11-12T07:17:53.888Z,101800.22
2022-11-12T07:24:04.830Z,101807.75
2022-11-12T07:30:17.119Z,101815.41
2022-11-12T07:36:28.591Z,101809.47
2022-11-12T07:42:40.011Z,101798.81
2022-11-12T07:48:50.970Z,101802.72
2022-11-12T07:55:03.003Z,101804.81
2022-11-12T08:01:35.072Z,101797.31
2022-11-12T08:07:47.847Z,101790.19
2022-11-12T08:13:59.018Z,101804.28
2022-11-12T08:20:10.518Z,101804.16
2022-11-12T08:26:22.116Z,101810.47
2022-11-12T08:32:34.162Z,101816.28
2022-11-12T08:38:45.079Z,101819.81
2022-11-12T08:44:55.876Z,101826.63
2022-11-12T08:51:08.325Z,101821.09
2022-11-12T08:57:18.999Z,101812.06
2022-11-12T09:03:30.710Z,101806.69
2022-11-12T09:09:42.350Z,101804.38
2022-11-12T09:15:53.018Z,101814.16
2022-11-12T09:22:04.308Z,101816.06
2022-11-12T09:28:19.819Z,101808.41
2022-11-12T09:34:31.180Z,101815.28
2022-11-12T09:40:54.280Z,101822.16
2022-11-12T09:47:14.727Z,101811.47
2022-11-12T09:53:50.840Z,101819.38
2022-11-12T10:00:04.082Z,101828.09
2022-11-12T10:06:28.168Z,101817.06
2022-11-12T10:13:01.244Z,101817.50
2022-11-12T10:19:30.239Z,101817.22
2022-11-12T10:25:45.918Z,101806.22
2022-11-12T10:31:57.119Z,101820.25
2022-11-12T10:38:17.288Z,101808.31
2022-11-12T10:44:28.470Z,101801.56
2022-11-12T10:50:43.368Z,101803.94
2022-11-12T10:56:55.575Z,101799.53
2022-11-12T11:03:19.898Z,101801.38
2022-11-12T11:09:33.947Z,101799.22
2022-11-12T11:16:02.787Z,101799.16
2022-11-12T11:22:18.008Z,101800.19
2022-11-12T11:28:35.559Z,101800.91
2022-11-12T11:35:23.229Z,101791.78
2022-11-12T11:41:55.699Z,101774.31
2022-11-12T11:48:16.027Z,101781.88
2022-11-12T11:54:58.707Z,101775.06
2022-11-12T12:01:39.529Z,101788.97
2022-11-12T12:08:13.249Z,101773.22
2022-11-12T12:14:42.776Z,101780.59
2022-11-12T12:21:05.056Z,101787.41
2022-11-12T12:27:36.127Z,101774.94
2022-11-12T12:33:58.738Z,101786.75
2022-11-12T12:40:45.197Z,101779.03
2022-11-12T12:47:01.148Z,101768.38
2022-11-12T12:53:30.408Z,101780.59
2022-11-12T12:59:41.719Z,101778.59
2022-11-12T13:06:08.156Z,101780.53
2022-11-12T13:12:18.808Z,101781.97
2022-11-12T13:18:38.500Z,101782.09
2022-11-12T13:25:09.187Z,101774.28
2022-11-12T13:31:30.001Z,101770.41
2022-11-12T13:37:45.710Z,101759.97
2022-11-12T13:43:57.355Z,101759.78
2022-11-12T13:50:16.440Z,101761.31
2022-11-12T13:56:31.149Z,101750.78
2022-11-12T14:02:48.381Z,101756.38
2022-11-12T14:09:13.409Z,101758.88
2022-11-12T14:15:47.237Z,101751.03
2022-11-12T14:22:13.723Z,101751.88
2022-11-12T14:28:27.849Z,101751.72
2022-11-12T14:34:38.969Z,101770.06
2022-11-12T14:41:10.575Z,101751.06
2022-11-12T14:47:23.431Z,101770.56
2022-11-12T14:53:58.951Z,101756.66
2022-11-12T15:00:38.079Z,101757.53
2022-11-12T15:06:53.937Z,101762.94
2022-11-12T15:13:10.978Z,101762.53
2022-11-12T15:19:29.060Z,101770.50
2022-11-12T15:25:41.081Z,101776.94
2022-11-12T15:31:57.519Z,101775.34
2022-11-12T15:38:22.849Z,101770.53
2022-11-12T15:44:37.450Z,101758.09
2022-11-12T15:50:49.334Z,101757.91
2022-11-12T15:57:01.227Z,101771.41
2022-11-12T16:03:19.499Z,101786.44
2022-11-12T16:09:31.194Z,101784.69
2022-11-12T16:15:43.328Z,101802.53
2022-11-12T16:21:54.820Z,101810.34
2022-11-12T16:28:14.619Z,101809.94
2022-11-12T16:34:25.229Z,101806.81
2022-11-12T16:40:37.368Z,101814.47
2022-11-12T16:46:48.299Z,101810.19
2022-11-12T16:52:59.319Z,101793.44
2022-11-12T16:59:15.909Z,101796.44
2022-11-12T17:05:27.328Z,101784.28
2022-11-12T17:11:38.849Z,101801.59
2022-11-12T17:17:49.319Z,101791.06
2022-11-12T17:23:59.915Z,101799.63
2022-11-12T17:30:12.280Z,101801.19
2022-11-12T17:36:25.849Z,101800.78
2022-11-12T17:42:36.300Z,101807.53
2022-11-12T17:48:47.451Z,101803.13
2022-11-12T17:54:58.399Z,101796.72
2022-11-12T18:01:12.060Z,101808.69
2022-11-12T18:07:23.731Z,101814.47
2022-11-12T18:13:35.641Z,101813.19
2022-11-12T18:19:46.479Z,101816.50
2022-11-12T18:25:57.480Z,101822.00
2022-11-12T18:32:09.019Z,101818.66
2022-11-12T18:38:19.529Z,101824.06
2022-11-12T18:44:31.661Z,101820.59
2022-11-12T18:50:43.492Z,101831.50
2022-11-12T18:56:54.718Z,101843.47
2022-11-12T19:03:05.719Z,101827.56
2022-11-12T19:09:18.066Z,101819.88
2022-11-12T19:15:34.340Z,101826.53
2022-11-12T19:21:45.744Z,101819.78
2022-11-12T19:27:56.891Z,101808.69
2022-11-12T19:34:09.040Z,101814.66
2022-11-12T19:40:21.300Z,101804.47
2022-11-12T19:46:33.362Z,101799.59
2022-11-12T19:52:45.970Z,101810.94
2022-11-12T19:58:56.920Z,101804.41
2022-11-12T20:05:08.169Z,101808.03
2022-11-12T20:11:20.603Z,101807.84
2022-11-12T20:17:33.980Z,101813.69
2022-11-12T20:23:45.949Z,101818.75
2022-11-12T20:29:57.873Z,101820.31
2022-11-12T20:36:15.490Z,101811.97
2022-11-12T20:42:26.789Z,101800.00
2022-11-12T20:48:42.795Z,101804.53
2022-11-12T20:54:56.560Z,101805.22
2022-11-12T21:01:11.821Z,101806.03
2022-11-12T21:07:23.086Z,101803.47
2022-11-12T21:13:37.040Z,101799.44
2022-11-12T21:19:49.095Z,101796.69
2022-11-12T21:26:21.957Z,101797.22
2022-11-12T21:32:33.126Z,101788.00
2022-11-12T21:38:44.778Z,101783.59
2022-11-12T21:44:56.161Z,101780.75
2022-11-12T21:51:11.738Z,101781.22
2022-11-12T21:57:23.172Z,101789.28
2022-11-12T22:03:34.301Z,101788.53
2022-11-12T22:09:45.019Z,101782.25
2022-11-12T22:15:56.555Z,101780.81
2022-11-12T22:22:08.274Z,101782.44
2022-11-12T22:28:19.007Z,101780.63
2022-11-12T22:34:30.136Z,101771.50
2022-11-12T22:40:42.126Z,101771.03
2022-11-12T22:46:53.196Z,101763.91
2022-11-12T22:53:04.170Z,101757.38
2022-11-12T22:59:15.177Z,101777.84
2022-11-12T23:05:27.175Z,101776.88
2022-11-12T23:11:38.564Z,101765.16
2022-11-12T23:17:50.148Z,101758.06
2022-11-12T23:24:01.167Z,101759.13
2022-11-12T23:30:12.787Z,101750.22
2022-11-12T23:36:26.299Z,101764.56
2022-11-12T23:42:37.206Z,101754.75
2022-11-12T23:48:48.227Z,101755.75
2022-11-12T23:54:59.295Z,101756.84
